Time;durP1;ratioP1;P1;durP2;ratioP2;P2;SDS_P1;SDS_P2;PMS_P1;PMS_P2;Temp;Humidity;BMP_temperature;BMP_pressure;BME280_temperature;BME280_humidity;BME280_pressure;Samples;Min_cycle;Max_cycle;Signal;HPM_P1;HPM_P2
2022/07/24 00:00:52;;;;;;;12.73;6.28;;;;;;;19.16;100.00;101558.22;5055293;28;20515;-76
2022/07/24 00:03:18;;;;;;;13.98;6.35;;;;;;;19.14;100.00;101560.69;5066434;28;20072;-75
2022/07/24 00:05:46;;;;;;;11.48;5.25;;;;;;;19.11;100.00;101553.16;5055235;28;20052;-73
2022/07/24 00:08:13;;;;;;;18.50;6.43;;;;;;;19.07;100.00;101549.63;5047742;28;20446;-75
2022/07/24 00:10:39;;;;;;;13.25;5.97;;;;;;;19.03;100.00;101557.31;5055893;28;20044;-76
2022/07/24 00:13:06;;;;;;;12.00;5.78;;;;;;;19.02;100.00;101555.75;5051512;28;20090;-75
2022/07/24 00:15:33;;;;;;;15.02;5.75;;;;;;;19.00;100.00;101544.16;5064566;28;20135;-75
2022/07/24 00:17:59;;;;;;;12.20;6.07;;;;;;;18.96;100.00;101540.66;5050648;28;20127;-78
2022/07/24 00:20:26;;;;;;;15.55;6.97;;;;;;;18.90;100.00;101542.38;5059246;28;20127;-76
2022/07/24 00:22:52;;;;;;;14.55;6.32;;;;;;;18.88;100.00;101544.84;5052165;28;20069;-76
2022/07/24 00:25:19;;;;;;;13.88;6.38;;;;;;;18.87;100.00;101540.44;5061770;28;20501;-75
2022/07/24 00:27:45;;;;;;;14.63;6.07;;;;;;;18.83;100.00;101539.75;5050165;28;20538;-79
2022/07/24 00:30:12;;;;;;;12.82;6.55;;;;;;;18.83;100.00;101539.75;5056601;28;20132;-75
2022/07/24 00:32:39;;;;;;;13.05;6.20;;;;;;;18.81;100.00;101535.81;5055130;28;20088;-75
2022/07/24 00:35:06;;;;;;;13.60;6.13;;;;;;;18.80;100.00;101537.81;5052879;28;20048;-75
2022/07/24 00:37:32;;;;;;;15.25;6.68;;;;;;;18.78;100.00;101533.88;5051653;28;20051;-75
2022/07/24 00:39:59;;;;;;;14.73;6.35;;;;;;;18.78;100.00;101536.66;5050245;28;20131;-75
2022/07/24 00:42:25;;;;;;;12.88;6.30;;;;;;;18.75;100.00;101529.13;5064504;28;20718;-76
2022/07/24 00:44:52;;;;;;;12.40;6.25;;;;;;;18.71;100.00;101526.41;5051689;28;20144;-77
2022/07/24 00:47:18;;;;;;;15.73;6.70;;;;;;;18.72;100.00;101529.97;5059858;28;20527;-75
2022/07/24 00:49:47;;;;;;;15.05;6.57;;;;;;;18.69;100.00;101534.44;5051427;28;20128;-75
2022/07/24 00:52:13;;;;;;;17.23;6.75;;;;;;;18.65;100.00;101524.53;5056697;28;20132;-75
2022/07/24 00:54:40;;;;;;;21.60;6.57;;;;;;;18.63;100.00;101524.19;5056135;28;20055;-74
2022/07/24 00:57:07;;;;;;;15.45;6.68;;;;;;;18.62;100.00;101533.81;5056435;28;20573;-76
2022/07/24 00:59:37;;;;;;;14.45;6.80;;;;;;;18.63;100.00;101536.19;5048930;28;20049;-77
2022/07/24 01:02:03;;;;;;;12.90;5.57;;;;;;;18.59;100.00;101541.06;5058213;28;20124;-76
2022/07/24 01:04:30;;;;;;;14.27;5.88;;;;;;;18.56;100.00;101535.56;5054361;28;20052;-75
2022/07/24 01:06:58;;;;;;;14.60;6.43;;;;;;;18.57;100.00;101543.53;5057625;28;20053;-77
2022/07/24 01:09:25;;;;;;;14.88;6.10;;;;;;;18.56;100.00;101543.97;5057703;28;20125;-77
2022/07/24 01:11:52;;;;;;;16.50;6.93;;;;;;;18.55;100.00;101543.16;5065593;28;20047;-76
2022/07/24 01:14:19;;;;;;;17.40;7.25;;;;;;;18.47;100.00;101533.34;5056514;28;20044;-77
2022/07/24 01:16:45;;;;;;;15.68;6.75;;;;;;;18.48;100.00;101540.50;5062982;28;20049;-79
2022/07/24 01:19:12;;;;;;;16.35;6.75;;;;;;;18.42;100.00;101538.66;5054601;28;20082;-76
2022/07/24 01:21:45;;;;;;;12.90;6.05;;;;;;;18.38;100.00;101540.72;5066833;28;20106;-76
2022/07/24 01:24:12;;;;;;;14.43;6.88;;;;;;;18.38;100.00;101537.91;5062600;28;20154;-77
2022/07/24 01:26:38;;;;;;;14.73;7.03;;;;;;;18.36;100.00;101537.56;5070061;28;20053;-77
2022/07/24 01:29:05;;;;;;;12.20;5.90;;;;;;;18.35;100.00;101536.72;5061301;28;20049;-77
2022/07/24 01:31:32;;;;;;;16.00;7.32;;;;;;;18.33;100.00;101535.59;5056824;28;20087;-77
2022/07/24 01:33:59;;;;;;;12.23;6.07;;;;;;;18.28;100.00;101534.06;5061000;28;20131;-76
2022/07/24 01:36:25;;;;;;;15.85;6.80;;;;;;;18.26;100.00;101527.34;5060067;28;20114;-78
2022/07/24 01:38:52;;;;;;;14.98;6.97;;;;;;;18.26;100.00;101533.69;5061770;28;20137;-76
2022/07/24 01:41:18;;;;;;;14.27;6.35;;;;;;;18.23;100.00;101529.00;5061476;28;20043;-76
2022/07/24 01:43:45;;;;;;;15.10;7.40;;;;;;;18.21;100.00;101525.00;5065751;28;20127;-76
2022/07/24 01:46:12;;;;;;;20.48;8.05;;;;;;;18.17;100.00;101525.09;5050920;28;20084;-76
2022/07/24 01:48:42;;;;;;;13.25;6.55;;;;;;;18.16;100.00;101523.53;5059464;28;20472;-78
2022/07/24 01:51:09;;;;;;;14.48;6.82;;;;;;;18.14;100.00;101522.34;5060678;28;20044;-76
2022/07/24 01:53:36;;;;;;;16.02;6.78;;;;;;;18.12;100.00;101522.78;5054684;28;20063;-76
2022/07/24 01:56:03;;;;;;;12.88;6.10;;;;;;;18.08;100.00;101522.06;5067012;28;20068;-75
2022/07/24 01:58:30;;;;;;;13.93;6.93;;;;;;;18.07;100.00;101520.50;5054145;28;20381;-77
2022/07/24 02:00:57;;;;;;;16.33;6.93;;;;;;;18.04;100.00;101521.34;5062847;28;20044;-76
2022/07/24 02:03:24;;;;;;;14.43;6.38;;;;;;;18.03;100.00;101520.53;5055705;28;20082;-76
2022/07/24 02:05:51;;;;;;;13.93;6.70;;;;;;;18.02;100.00;101528.59;5061640;28;20044;-77
2022/07/24 02:08:17;;;;;;;14.00;6.45;;;;;;;17.99;100.00;101516.25;5067797;28;20055;-76
2022/07/24 02:10:44;;;;;;;15.82;6.78;;;;;;;18.00;100.00;101520.63;5056908;28;20045;-76
2022/07/24 02:13:10;;;;;;;14.95;6.35;;;;;;;17.98;100.00;101520.25;5058929;28;20124;-76
2022/07/24 02:15:37;;;;;;;12.25;5.88;;;;;;;17.95;100.00;101521.91;5064834;28;20051;-77
2022/07/24 02:18:04;;;;;;;15.13;7.10;;;;;;;17.91;100.00;101525.97;5063782;28;20243;-77
2022/07/24 02:20:31;;;;;;;14.95;6.97;;;;;;;17.84;100.00;101517.72;5072219;28;20094;-76
2022/07/24 02:22:57;;;;;;;14.88;7.38;;;;;;;17.81;100.00;101510.16;5056911;28;20053;-76
2022/07/24 02:25:24;;;;;;;13.80;6.97;;;;;;;17.84;100.00;101510.13;5059383;28;20132;-75
2022/07/24 02:27:51;;;;;;;14.88;7.10;;;;;;;17.82;100.00;101508.97;5064078;28;20588;-76
2022/07/24 02:30:21;;;;;;;15.05;7.40;;;;;;;17.81;100.00;101508.16;5060439;28;20056;-76
2022/07/24 02:32:48;;;;;;;14.90;6.93;;;;;;;17.80;100.00;101505.81;5057651;28;20052;-77
2022/07/24 02:35:15;;;;;;;12.27;6.47;;;;;;;17.79;100.00;101505.00;5058943;28;20063;-76
2022/07/24 02:37:44;;;;;;;13.38;7.30;;;;;;;17.77;100.00;101509.44;5057382;28;20079;-76
2022/07/24 02:40:13;;;;;;;13.60;7.03;;;;;;;17.75;100.00;101501.47;5057676;28;20143;-76
2022/07/24 02:42:40;;;;;;;16.38;6.55;;;;;;;17.74;100.00;101497.09;5055221;28;20131;-77
2022/07/24 02:45:07;;;;;;;11.82;6.82;;;;;;;17.74;100.00;101502.72;5059538;28;20481;-76
2022/07/24 02:47:36;;;;;;;13.73;7.22;;;;;;;17.72;100.00;101496.72;5061912;28;20135;-77
2022/07/24 02:50:03;;;;;;;15.48;6.63;;;;;;;17.70;100.00;101501.19;5062919;28;20098;-76
2022/07/24 02:52:29;;;;;;;15.05;7.07;;;;;;;17.68;100.00;101498.81;5050953;28;20139;-77
2022/07/24 02:54:56;;;;;;;14.27;6.93;;;;;;;17.64;100.00;101491.69;5057442;28;20054;-76
2022/07/24 02:57:23;;;;;;;13.48;7.30;;;;;;;17.62;100.00;101489.31;5053577;28;20118;-76
2022/07/24 02:59:51;;;;;;;13.70;6.75;;;;;;;17.61;100.00;101498.13;5058533;28;20143;-76
2022/07/24 03:02:19;;;;;;;16.40;7.00;;;;;;;17.59;100.00;101487.38;5058821;28;20079;-77
2022/07/24 03:04:46;;;;;;;12.30;6.10;;;;;;;17.57;100.00;101489.81;5066052;28;20139;-75
2022/07/24 03:07:13;;;;;;;15.15;7.10;;;;;;;17.55;100.00;101489.44;5060164;28;20481;-76
2022/07/24 03:09:39;;;;;;;12.50;6.60;;;;;;;17.52;100.00;101481.91;5058219;28;20139;-75
2022/07/24 03:12:06;;;;;;;12.43;6.40;;;;;;;17.53;100.00;101486.28;5055267;28;20053;-75
2022/07/24 03:14:33;;;;;;;18.52;7.13;;;;;;;17.51;100.00;101491.50;5058521;28;20099;-75
2022/07/24 03:17:00;;;;;;;15.32;6.80;;;;;;;17.54;100.00;101493.47;5056473;28;20136;-77
2022/07/24 03:19:26;;;;;;;15.45;7.10;;;;;;;17.53;100.00;101488.28;5064588;28;20044;-77
2022/07/24 03:21:53;;;;;;;16.88;6.90;;;;;;;17.49;100.00;101493.16;5058979;28;20394;-78
2022/07/24 03:24:19;;;;;;;12.70;6.82;;;;;;;17.49;100.00;101479.19;5062244;28;20094;-76
2022/07/24 03:26:46;;;;;;;20.52;7.90;;;;;;;17.48;100.00;101486.75;5062078;28;20052;-75
2022/07/24 03:29:13;;;;;;;14.30;6.95;;;;;;;17.43;100.00;101486.47;5054044;28;20111;-77
2022/07/24 03:31:39;;;;;;;14.00;6.55;;;;;;;17.47;100.00;101485.19;5056419;28;20136;-75
2022/07/24 03:34:06;;;;;;;14.85;6.65;;;;;;;17.45;100.00;101478.44;5055921;28;20045;-77
2022/07/24 03:36:33;;;;;;;14.30;6.65;;;;;;;17.42;100.00;101482.88;5063047;28;20079;-76
2022/07/24 03:38:59;;;;;;;16.05;7.43;;;;;;;17.43;100.00;101486.47;5057339;28;20049;-76
2022/07/24 03:41:26;;;;;;;16.75;7.25;;;;;;;17.43;100.00;101489.25;5051837;28;20052;-76
2022/07/24 03:43:53;;;;;;;16.17;7.22;;;;;;;17.43;100.00;101495.66;5049254;28;20048;-76
2022/07/24 03:46:19;;;;;;;14.98;6.97;;;;;;;17.43;100.00;101492.88;5062916;28;20155;-74
2022/07/24 03:48:46;;;;;;;14.30;6.53;;;;;;;17.43;100.00;101492.06;5057804;28;20486;-75
2022/07/24 03:51:13;;;;;;;12.88;6.90;;;;;;;17.43;100.00;101494.88;5053147;28;20052;-78
2022/07/24 03:53:40;;;;;;;13.82;6.95;;;;;;;17.47;100.00;101495.59;5059758;28;20107;-76
2022/07/24 03:56:08;;;;;;;17.85;7.18;;;;;;;17.48;100.00;101499.97;5059384;28;20060;-76
2022/07/24 03:58:36;;;;;;;18.35;7.07;;;;;;;17.47;100.00;101495.59;5067721;28;20059;-75
2022/07/24 04:01:05;;;;;;;15.80;7.43;;;;;;;17.44;100.00;101499.22;5059265;28;20064;-76
2022/07/24 04:03:32;;;;;;;14.02;6.68;;;;;;;17.43;100.00;101494.88;5060018;28;20135;-76
2022/07/24 04:06:04;;;;;;;15.38;7.35;;;;;;;17.41;100.00;101498.06;5052258;28;20051;-76
2022/07/24 04:08:31;;;;;;;16.52;7.40;;;;;;;17.40;100.00;101502.06;5060945;28;20128;-74
2022/07/24 04:10:58;;;;;;;13.15;6.95;;;;;;;17.42;100.00;101496.84;5066009;28;20507;-77
2022/07/24 04:13:29;;;;;;;15.57;7.18;;;;;;;17.45;100.00;101492.44;5053959;28;20114;-76
2022/07/24 04:15:56;;;;;;;11.75;6.25;;;;;;;17.46;100.00;101497.63;5055655;28;20140;-76
2022/07/24 04:18:23;;;;;;;13.57;7.05;;;;;;;17.48;100.00;101497.97;5061147;28;20102;-74
2022/07/24 04:20:50;;;;;;;14.00;6.82;;;;;;;17.48;100.00;101491.56;5064650;28;20143;-76
2022/07/24 04:23:17;;;;;;;14.95;6.90;;;;;;;17.46;100.00;101480.03;5065517;28;20673;-76
2022/07/24 04:25:45;;;;;;;17.05;7.18;;;;;;;17.51;100.00;101487.91;5060548;28;20052;-76
2022/07/24 04:28:12;;;;;;;14.75;7.43;;;;;;;17.53;100.00;101491.09;5058883;28;20102;-76
2022/07/24 04:30:39;;;;;;;18.58;7.20;;;;;;;17.52;100.00;101481.91;5061177;28;20053;-77
2022/07/24 04:33:05;;;;;;;15.18;7.53;;;;;;;17.55;100.00;101483.06;5055507;28;20049;-76
2022/07/24 04:35:32;;;;;;;15.95;7.93;;;;;;;17.57;100.00;101480.63;5047413;28;20076;-76
2022/07/24 04:37:58;;;;;;;14.90;7.70;;;;;;;17.61;100.00;101478.53;5064611;28;20048;-74
2022/07/24 04:40:25;;;;;;;15.23;7.97;;;;;;;17.62;100.00;101488.53;5053695;28;20128;-77
2022/07/24 04:42:51;;;;;;;14.65;7.25;;;;;;;17.63;100.00;101485.31;5056021;28;20049;-76
2022/07/24 04:45:18;;;;;;;15.13;7.25;;;;;;;17.63;100.00;101479.72;5064218;28;20051;-74
2022/07/24 04:47:45;;;;;;;14.50;7.25;;;;;;;17.67;100.00;101486.03;5063449;28;20071;-78
2022/07/24 04:50:11;;;;;;;14.48;7.28;;;;;;;17.68;100.00;101481.22;5055726;28;20084;-77
2022/07/24 04:52:40;;;;;;;14.18;7.43;;;;;;;17.74;100.00;101485.09;5062953;28;20506;-77
2022/07/24 04:55:08;;;;;;;15.75;7.82;;;;;;;17.77;100.00;101489.84;5063456;28;20048;-76
2022/07/24 04:57:35;;;;;;;17.40;7.38;;;;;;;17.82;100.00;101480.97;5057857;28;20048;-77
2022/07/24 05:00:04;;;;;;;13.98;7.38;;;;;;;17.84;100.00;101484.94;5052713;28;20041;-77
2022/07/24 05:02:30;;;;;;;16.35;7.72;;;;;;;17.87;100.00;101480.47;5065841;28;20572;-77
2022/07/24 05:04:57;;;;;;;13.48;7.30;;;;;;;17.91;100.00;101484.78;5054390;28;20206;-75
2022/07/24 05:07:24;;;;;;;14.45;7.63;;;;;;;17.98;100.00;101479.06;5060339;28;20087;-78
2022/07/24 05:09:50;;;;;;;17.08;7.05;;;;;;;18.06;100.00;101487.31;5062966;28;20048;-74
2022/07/24 05:12:17;;;;;;;13.43;7.47;;;;;;;18.10;100.00;101486.03;5066811;28;20494;-74
2022/07/24 05:14:45;;;;;;;15.93;7.65;;;;;;;18.16;100.00;101486.31;5056944;28;20540;-78
2022/07/24 05:17:11;;;;;;;14.05;7.28;;;;;;;18.23;100.00;101481.38;5063076;28;20057;-77
2022/07/24 05:19:38;;;;;;;14.52;7.43;;;;;;;18.32;100.00;101473.16;5062848;28;20545;-78
2022/07/24 05:22:04;;;;;;;16.92;7.53;;;;;;;18.40;100.00;101482.25;5066008;28;20041;-77
2022/07/24 05:24:31;;;;;;;15.57;7.93;;;;;;;18.50;100.00;101476.41;5066658;28;20493;-76
2022/07/24 05:26:57;;;;;;;14.25;7.30;;;;;;;18.58;100.00;101483.44;5068638;28;20098;-77
2022/07/24 05:29:24;;;;;;;15.15;8.25;;;;;;;18.69;100.00;101486.78;5060443;28;20106;-77
2022/07/24 05:31:54;;;;;;;14.52;7.00;;;;;;;18.78;100.00;101491.81;5051443;28;20076;-75
2022/07/24 05:34:22;;;;;;;16.02;7.22;;;;;;;18.87;100.00;101489.97;5060852;28;20139;-76
2022/07/24 05:36:49;;;;;;;20.17;8.93;;;;;;;18.97;100.00;101486.13;5065279;28;20409;-76
2022/07/24 05:39:16;;;;;;;13.20;7.55;;;;;;;19.12;100.00;101495.81;5055969;28;20063;-77
2022/07/24 05:41:42;;;;;;;14.63;7.63;;;;;;;19.23;100.00;101487.94;5058252;28;20140;-77
2022/07/24 05:44:09;;;;;;;13.43;7.25;;;;;;;19.35;100.00;101484.47;5059579;28;20135;-75
2022/07/24 05:46:36;;;;;;;15.68;7.40;;;;;;;19.47;100.00;101482.97;5056848;28;20074;-77
2022/07/24 05:49:02;;;;;;;14.20;6.78;;;;;;;19.57;100.00;101479.06;5060713;28;20472;-76
2022/07/24 05:51:30;;;;;;;18.30;8.18;;;;;;;19.69;100.00;101476.38;5061850;28;20049;-74
2022/07/24 05:53:57;;;;;;;20.80;9.43;;;;;;;19.81;100.00;101475.63;5061368;28;20066;-77
2022/07/24 05:56:23;;;;;;;15.52;7.68;;;;;;;19.97;100.00;101489.63;5062892;28;20140;-77
2022/07/24 05:58:51;;;;;;;14.02;7.63;;;;;;;20.07;100.00;101494.16;5057858;28;20053;-79
2022/07/24 06:01:17;;;;;;;14.93;7.43;;;;;;;20.21;100.00;101498.63;5061659;28;20054;-77
2022/07/24 06:03:44;;;;;;;15.60;7.20;;;;;;;20.36;100.00;101494.94;5063101;28;20529;-76
2022/07/24 06:06:11;;;;;;;15.45;7.80;;;;;;;20.58;100.00;101494.34;5053790;28;20052;-77
2022/07/24 06:08:38;;;;;;;12.82;7.22;;;;;;;20.64;100.00;101492.53;5061471;28;20080;-76
2022/07/24 06:11:05;;;;;;;14.18;6.70;;;;;;;20.77;100.00;101487.72;5056069;28;20041;-76
2022/07/24 06:13:32;;;;;;;11.70;6.97;;;;;;;20.96;100.00;101483.94;5059525;28;20048;-76
2022/07/24 06:16:00;;;;;;;15.38;6.63;;;;;;;21.06;100.00;101483.59;5059265;28;20576;-77
2022/07/24 06:18:26;;;;;;;15.05;7.45;;;;;;;21.20;100.00;101493.63;5059133;28;20472;-77
2022/07/24 06:20:53;;;;;;;13.15;6.57;;;;;;;21.27;100.00;101493.38;5055966;28;20526;-77
2022/07/24 06:23:20;;;;;;;13.20;6.47;;;;;;;21.36;100.00;101496.31;5061410;28;20063;-77
2022/07/24 06:25:47;;;;;;;11.90;5.97;;;;;;;21.53;100.00;101503.38;5060481;28;20049;-76
2022/07/24 06:28:14;;;;;;;12.73;6.55;;;;;;;21.62;100.00;101506.25;5059716;28;20110;-77
2022/07/24 06:30:41;;;;;;;15.95;7.78;;;;;;;21.73;100.00;101499.06;5059473;28;20351;-77
2022/07/24 06:33:07;;;;;;;13.18;6.68;;;;;;;21.88;100.00;101496.53;5062524;28;20036;-75
2022/07/24 06:35:34;;;;;;;11.52;6.18;;;;;;;22.00;100.00;101493.66;5062265;28;20105;-78
2022/07/24 06:38:01;;;;;;;12.02;5.82;;;;;;;22.00;100.00;101498.53;5059714;28;20049;-76
2022/07/24 06:40:28;;;;;;;13.23;6.38;;;;;;;22.15;100.00;101488.31;5065103;28;20045;-79
2022/07/24 06:42:55;;;;;;;14.40;6.22;;;;;;;22.21;100.00;101486.47;5068883;28;20571;-75
2022/07/24 06:45:22;;;;;;;15.93;6.85;;;;;;;22.33;100.00;101488.44;5064760;28;20057;-76
2022/07/24 06:47:49;;;;;;;15.15;6.93;;;;;;;22.39;98.56;101497.88;5064448;28;20497;-76
2022/07/24 06:50:16;;;;;;;11.38;6.40;;;;;;;22.51;97.67;101494.25;5057253;28;20487;-75
2022/07/24 06:52:43;;;;;;;12.90;6.90;;;;;;;22.65;98.72;101497.28;5061245;28;20055;-75
2022/07/24 06:55:09;;;;;;;10.63;5.78;;;;;;;22.69;94.67;101500.75;5071512;28;20501;-75
2022/07/24 06:57:36;;;;;;;13.63;6.82;;;;;;;22.87;97.16;101494.44;5054738;28;20140;-74
2022/07/24 07:00:06;;;;;;;12.90;7.00;;;;;;;22.98;92.35;101494.78;5064599;28;20056;-75
2022/07/24 07:02:33;;;;;;;15.15;7.45;;;;;;;23.09;90.13;101502.84;5068516;28;20048;-75
2022/07/24 07:05:00;;;;;;;12.40;6.38;;;;;;;23.20;88.31;101503.19;5069804;28;20052;-77
2022/07/24 07:07:27;;;;;;;9.90;5.65;;;;;;;23.27;85.97;101509.38;5066898;28;20086;-75
2022/07/24 07:09:53;;;;;;;13.32;6.20;;;;;;;23.33;83.64;101503.88;5055167;28;20132;-75
2022/07/24 07:12:20;;;;;;;14.68;6.40;;;;;;;23.45;85.14;101500.16;5051111;28;20153;-76
2022/07/24 07:14:46;;;;;;;12.70;6.72;;;;;;;23.59;84.53;101508.03;5059871;28;20576;-76
2022/07/24 07:17:15;;;;;;;13.13;6.63;;;;;;;23.61;82.22;101511.16;5063189;28;20048;-77
2022/07/24 07:19:42;;;;;;;9.80;3.97;;;;;;;23.63;78.79;101512.28;5060039;28;20131;-73
2022/07/24 07:22:10;;;;;;;9.65;5.30;;;;;;;23.69;80.10;101499.09;5061150;28;20045;-72
2022/07/24 07:24:37;;;;;;;12.32;5.22;;;;;;;23.70;76.38;101512.00;5057525;28;20579;-74
2022/07/24 07:27:09;;;;;;;14.10;6.30;;;;;;;23.78;75.83;101501.94;5061375;28;20098;-73
2022/07/24 07:29:36;;;;;;;11.10;5.55;;;;;;;23.89;75.11;101505.09;5057659;28;20134;-72
2022/07/24 07:32:03;;;;;;;10.73;5.57;;;;;;;24.02;75.00;101497.28;5055201;28;20563;-72
2022/07/24 07:34:30;;;;;;;12.82;6.60;;;;;;;24.07;72.72;101496.66;5049264;28;20063;-73
2022/07/24 07:36:56;;;;;;;13.60;6.63;;;;;;;24.19;74.49;101497.72;5053810;28;20611;-73
2022/07/24 07:39:22;;;;;;;14.20;6.60;;;;;;;24.20;71.11;101494.44;5061899;28;20048;-74
2022/07/24 07:41:49;;;;;;;12.75;5.57;;;;;;;24.26;70.52;101503.09;5057045;28;20131;-69
2022/07/24 07:44:16;;;;;;;7.20;4.50;;;;;;;24.24;68.41;101505.59;5064557;28;20087;-76
2022/07/24 07:46:43;;;;;;;13.70;6.18;;;;;;;24.38;67.35;101504.94;5061337;28;20135;-74
2022/07/24 07:49:10;;;;;;;9.40;4.40;;;;;;;24.49;67.92;101505.25;5062090;28;20060;-76
2022/07/24 07:51:37;;;;;;;10.23;5.00;;;;;;;24.46;66.01;101506.19;5063287;28;20044;-75
2022/07/24 07:54:06;;;;;;;12.25;4.65;;;;;;;24.56;66.47;101505.72;5060766;28;20101;-70
2022/07/24 07:56:33;;;;;;;11.15;3.72;;;;;;;24.68;66.67;101510.44;5063397;28;20049;-70
2022/07/24 07:58:59;;;;;;;12.63;6.28;;;;;;;24.83;66.68;101502.03;5056666;28;20135;-71
2022/07/24 08:01:27;;;;;;;10.75;4.53;;;;;;;24.73;62.73;101515.44;5051428;28;20531;-70
2022/07/24 08:03:53;;;;;;;12.00;6.15;;;;;;;24.88;65.52;101496.50;5060749;28;20044;-70
2022/07/24 08:06:20;;;;;;;5.82;2.40;;;;;;;24.94;64.79;101511.59;5055978;28;20139;-70
2022/07/24 08:08:49;;;;;;;14.23;6.50;;;;;;;25.13;64.74;101500.22;5051949;28;20052;-69
2022/07/24 08:11:16;;;;;;;9.43;4.20;;;;;;;25.12;63.75;101505.09;5055197;28;20060;-68
2022/07/24 08:13:43;;;;;;;7.68;3.78;;;;;;;25.15;63.49;101495.63;5054835;28;20044;-68
2022/07/24 08:16:10;;;;;;;10.25;5.53;;;;;;;25.17;63.31;101505.22;5056518;28;20054;-72
2022/07/24 08:18:36;;;;;;;9.52;4.38;;;;;;;25.34;63.29;101505.63;5060244;28;20485;-69
2022/07/24 08:21:04;;;;;;;12.10;4.32;;;;;;;25.48;64.79;101502.06;5059268;28;20531;-72
2022/07/24 08:23:30;;;;;;;13.50;5.55;;;;;;;25.51;63.58;101501.13;5055127;28;20159;-71
2022/07/24 08:25:57;;;;;;;10.90;4.93;;;;;;;25.52;60.98;101508.38;5059391;28;20094;-75
2022/07/24 08:28:24;;;;;;;11.35;4.43;;;;;;;25.64;62.34;101498.06;5056209;28;20483;-71
2022/07/24 08:30:50;;;;;;;14.82;6.63;;;;;;;25.81;63.25;101496.38;5062565;28;20052;-72
2022/07/24 08:33:18;;;;;;;11.73;4.68;;;;;;;25.75;61.92;101496.22;5059262;28;20059;-74
2022/07/24 08:35:44;;;;;;;13.82;6.93;;;;;;;25.93;62.53;101498.94;5065590;28;20588;-72
2022/07/24 08:38:11;;;;;;;10.98;5.20;;;;;;;25.74;61.45;101506.00;5062216;28;20087;-72
2022/07/24 08:40:39;;;;;;;13.73;7.50;;;;;;;25.89;63.22;101501.19;5065875;28;20131;-71
2022/07/24 08:43:07;;;;;;;11.32;6.50;;;;;;;25.89;62.00;101500.41;5057343;28;20063;-72
2022/07/24 08:45:38;;;;;;;20.55;7.88;;;;;;;26.01;62.74;101500.16;5060454;28;20140;-73
2022/07/24 08:48:07;;;;;;;14.35;8.02;;;;;;;26.12;62.29;101493.94;5060857;28;20121;-72
2022/07/24 08:50:37;;;;;;;12.88;7.25;;;;;;;26.02;61.96;101484.69;5059843;28;20044;-70
2022/07/24 08:53:04;;;;;;;14.95;6.78;;;;;;;26.17;64.39;101494.03;5052055;28;20049;-73
2022/07/24 08:55:31;;;;;;;10.63;5.85;;;;;;;26.18;62.57;101491.97;5061254;28;20057;-70
2022/07/24 08:58:00;;;;;;;13.88;6.65;;;;;;;26.24;63.14;101484.34;5060445;28;20051;-71
2022/07/24 09:00:29;;;;;;;11.18;5.47;;;;;;;26.29;62.39;101489.38;5057391;28;20498;-71
2022/07/24 09:02:55;;;;;;;13.18;7.38;;;;;;;26.31;62.13;101484.75;5060197;28;20111;-71
2022/07/24 09:05:23;;;;;;;17.48;7.72;;;;;;;26.30;60.96;101473.91;5063277;28;20129;-71
2022/07/24 09:08:14;;;;;;;20.75;7.72;;;;;;;26.17;61.96;101481.91;5057187;28;20111;-72
2022/07/24 09:10:53;;;;;;;14.75;7.82;;;;;;;26.45;61.96;101471.84;5057780;28;20790;-71
2022/07/24 09:13:20;;;;;;;16.35;8.13;;;;;;;26.52;61.33;101477.16;5063042;28;20140;-73
2022/07/24 09:15:48;;;;;;;15.88;7.53;;;;;;;26.46;61.19;101470.59;5053888;28;20082;-73
2022/07/24 09:18:29;;;;;;;7.85;3.70;;;;;;;26.50;61.42;101463.44;5059518;28;20463;-72
2022/07/24 09:20:57;;;;;;;15.52;7.82;;;;;;;26.58;60.67;101463.81;5060569;28;20060;-70
2022/07/24 09:23:25;;;;;;;17.23;7.88;;;;;;;26.67;60.98;101467.38;5055786;28;20135;-73
2022/07/24 09:25:54;;;;;;;8.27;4.43;;;;;;;26.49;59.17;101456.19;5054117;28;20094;-72
2022/07/24 09:28:21;;;;;;;8.88;3.47;;;;;;;26.67;58.89;101449.56;5065023;28;20048;-71
2022/07/24 09:30:48;;;;;;;13.85;6.80;;;;;;;26.78;58.85;101452.59;5056695;28;20047;-72
2022/07/24 09:33:18;;;;;;;11.65;6.25;;;;;;;26.96;60.49;101460.84;5050104;28;20338;-71
2022/07/24 09:35:50;;;;;;;17.67;8.43;;;;;;;27.05;58.91;101441.66;5057192;28;20136;-72
2022/07/24 09:38:24;;;;;;;16.95;7.78;;;;;;;27.25;59.10;101444.56;5069646;28;20323;-72
2022/07/24 09:40:54;;;;;;;16.20;8.48;;;;;;;27.35;57.59;101437.47;5056676;28;20199;-73
2022/07/24 09:43:28;;;;;;;15.20;5.28;;;;;;;27.35;57.92;101442.38;5068642;28;20075;-72
2022/07/24 09:46:01;;;;;;;15.77;7.25;;;;;;;27.33;57.49;101454.22;5069463;28;20053;-71
2022/07/24 09:48:34;;;;;;;16.70;8.63;;;;;;;27.44;57.00;101445.09;5067900;28;20041;-72
2022/07/24 09:51:05;;;;;;;16.92;8.02;;;;;;;27.56;56.77;101443.19;5050893;28;20128;-70
2022/07/24 09:53:36;;;;;;;13.32;7.13;;;;;;;27.61;57.64;101446.09;5061340;28;20091;-71
2022/07/24 09:56:15;;;;;;;7.40;3.50;;;;;;;27.55;54.85;101441.59;5063061;28;20115;-72
2022/07/24 09:58:44;;;;;;;15.98;7.15;;;;;;;27.82;55.20;101441.94;5050767;28;20049;-71
2022/07/24 10:01:13;;;;;;;12.93;7.28;;;;;;;27.93;53.40;101435.63;5063264;28;20208;-71
2022/07/24 10:03:42;;;;;;;15.93;7.53;;;;;;;28.07;55.27;101437.59;5068702;28;20087;-75
2022/07/24 10:06:17;;;;;;;13.13;6.75;;;;;;;27.95;55.20;101435.91;5061234;28;20433;-75
2022/07/24 10:08:46;;;;;;;13.93;5.80;;;;;;;28.03;53.76;101429.28;5058521;28;20127;-73
2022/07/24 10:11:13;;;;;;;14.63;6.78;;;;;;;28.08;52.76;101437.09;5057334;28;20048;-73
2022/07/24 10:13:40;;;;;;;16.20;7.53;;;;;;;28.17;53.28;101425.53;5060584;28;20044;-73
2022/07/24 10:16:25;;;;;;;12.13;5.93;;;;;;;28.02;52.51;101430.56;5066608;28;20075;-75
2022/07/24 10:19:03;;;;;;;8.23;3.63;;;;;;;28.07;50.88;101429.84;5064717;28;20807;-74
2022/07/24 10:21:37;;;;;;;19.73;6.65;;;;;;;28.28;52.57;101433.41;5062347;28;20086;-74
2022/07/24 10:24:03;;;;;;;15.95;7.43;;;;;;;28.42;52.40;101421.13;5061809;28;20123;-72
2022/07/24 10:26:45;;;;;;;12.93;7.03;;;;;;;28.57;52.15;101433.19;5060108;28;20075;-72
2022/07/24 10:29:20;;;;;;;15.38;6.97;;;;;;;28.75;50.47;101421.44;5057473;28;20481;-74
2022/07/24 10:31:51;;;;;;;11.63;5.80;;;;;;;28.85;50.59;101420.72;5052374;28;20057;-74
2022/07/24 10:34:24;;;;;;;18.70;7.57;;;;;;;28.90;51.13;101428.53;5058085;28;20379;-72
2022/07/24 10:37:02;;;;;;;12.35;6.10;;;;;;;28.69;50.30;101414.91;5053051;28;20044;-74
2022/07/24 10:39:44;;;;;;;12.45;7.15;;;;;;;28.97;51.58;101416.66;5058697;28;20052;-76
2022/07/24 10:42:10;;;;;;;14.82;7.82;;;;;;;28.95;50.42;101412.78;5061077;28;20048;-75
2022/07/24 10:44:37;;;;;;;11.70;5.25;;;;;;;28.84;48.60;101410.63;5066329;28;20064;-76
2022/07/24 10:47:13;;;;;;;9.65;5.13;;;;;;;28.95;48.51;101410.69;5049474;28;20048;-76
2022/07/24 10:49:44;;;;;;;11.10;4.85;;;;;;;28.95;48.48;101410.69;5041207;28;20048;-74
2022/07/24 10:52:22;;;;;;;16.60;7.28;;;;;;;28.98;48.54;101403.97;5044251;28;20560;-76
2022/07/24 10:55:07;;;;;;;11.52;4.47;;;;;;;28.91;48.80;101418.69;5059583;28;20044;-75
2022/07/24 10:57:47;;;;;;;15.23;7.00;;;;;;;29.03;47.60;101403.28;5043272;28;20050;-76
2022/07/24 11:00:24;;;;;;;11.07;6.35;;;;;;;29.08;47.55;101404.56;5058177;28;20051;-75
2022/07/24 11:02:56;;;;;;;13.38;7.10;;;;;;;29.14;47.23;101400.50;5038532;28;20044;-74
2022/07/24 11:05:26;;;;;;;9.60;4.18;;;;;;;29.05;47.01;101397.03;5041126;28;20055;-74
2022/07/24 11:08:20;;;;;;;15.18;6.88;;;;;;;29.26;46.77;101398.47;5039152;28;20055;-74
2022/07/24 11:10:54;;;;;;;13.80;7.32;;;;;;;29.31;46.34;101389.94;5040381;28;20046;-75
2022/07/24 11:13:33;;;;;;;15.30;7.05;;;;;;;29.59;44.87;101396.53;5039856;28;20151;-76
2022/07/24 11:16:09;;;;;;;6.65;2.88;;;;;;;29.50;46.40;101399.59;5042361;28;20049;-74